sensor_id;sensor_type;location;lat;lon;timestamp;pressure;altitude;pressure_sealevel;temperature;humidity
26719;BME280;14326;50.794;6.060;2022-07-22T00:02:15;100183.84;;;17.46;100.00
26719;BME280;14326;50.794;6.060;2022-07-22T00:04:42;100182.09;;;17.42;100.00
26719;BME280;14326;50.794;6.060;2022-07-22T00:07:09;100180.31;;;17.38;100.00
26719;BME280;14326;50.794;6.060;2022-07-22T00:09:35;100180.34;;;17.35;100.00
26719;BME280;14326;50.794;6.060;2022-07-22T00:12:04;100178.56;;;17.37;100.00
26719;BME280;14326;50.794;6.060;2022-07-22T00:14:31;100175.81;;;17.40;100.00
26719;BME280;14326;50.794;6.060;2022-07-22T00:16:57;100182.09;;;17.42;100.00
26719;BME280;14326;50.794;6.060;2022-07-22T00:19:24;100182.94;;;17.44;100.00
26719;BME280;14326;50.794;6.060;2022-07-22T00:21:51;100178.56;;;17.37;100.00
26719;BME280;14326;50.794;6.060;2022-07-22T00:24:18;100183.03;;;17.36;100.00
26719;BME280;14326;50.794;6.060;2022-07-22T00:26:44;100176.75;;;17.37;100.00
26719;BME280;14326;50.794;6.060;2022-07-22T00:29:13;100181.25;;;17.37;100.00
26719;BME280;14326;50.794;6.060;2022-07-22T00:31:39;100175.88;;;17.35;100.00
26719;BME280;14326;50.794;6.060;2022-07-22T00:34:06;100171.44;;;17.30;100.00
26719;BME280;14326;50.794;6.060;2022-07-22T00:36:33;100174.19;;;17.25;100.00
26719;BME280;14326;50.794;6.060;2022-07-22T00:39:00;100170.56;;;17.28;100.00
26719;BME280;14326;50.794;6.060;2022-07-22T00:41:27;100175.03;;;17.29;100.00
26719;BME280;14326;50.794;6.060;2022-07-22T00:43:56;100182.16;;;17.34;100.00
26719;BME280;14326;50.794;6.060;2022-07-22T00:46:26;100169.56;;;17.38;100.00
26719;BME280;14326;50.794;6.060;2022-07-22T00:48:53;100168.69;;;17.37;100.00
26719;BME280;14326;50.794;6.060;2022-07-22T00:51:20;100163.25;;;17.42;100.00
26719;BME280;14326;50.794;6.060;2022-07-22T00:53:47;100164.16;;;17.42;100.00
26719;BME280;14326;50.794;6.060;2022-07-22T00:56:16;100159.69;;;17.43;100.00
26719;BME280;14326;50.794;6.060;2022-07-22T00:58:43;100161.44;;;17.44;100.00
26719;BME280;14326;50.794;6.060;2022-07-22T01:01:10;100156.94;;;17.44;100.00
26719;BME280;14326;50.794;6.060;2022-07-22T01:03:39;100160.53;;;17.45;100.00
26719;BME280;14326;50.794;6.060;2022-07-22T01:06:06;100161.44;;;17.45;100.00
26719;BME280;14326;50.794;6.060;2022-07-22T01:08:33;100159.63;;;17.46;100.00
26719;BME280;14326;50.794;6.060;2022-07-22T01:11:07;100160.56;;;17.43;100.00
26719;BME280;14326;50.794;6.060;2022-07-22T01:13:34;100157.91;;;17.40;100.00
26719;BME280;14326;50.794;6.060;2022-07-22T01:16:02;100157.00;;;17.38;100.00
26719;BME280;14326;50.794;6.060;2022-07-22T01:18:28;100158.78;;;17.39;100.00
26719;BME280;14326;50.794;6.060;2022-07-22T01:20:57;100153.41;;;17.39;100.00
26719;BME280;14326;50.794;6.060;2022-07-22T01:23:24;100153.41;;;17.38;100.00
26719;BME280;14326;50.794;6.060;2022-07-22T01:25:50;100150.72;;;17.39;100.00
26719;BME280;14326;50.794;6.060;2022-07-22T01:28:17;100160.59;;;17.39;100.00
26719;BME280;14326;50.794;6.060;2022-07-22T01:30:44;100157.00;;;17.41;100.00
26719;BME280;14326;50.794;6.060;2022-07-22T01:33:10;100152.50;;;17.43;100.00
26719;BME280;14326;50.794;6.060;2022-07-22T01:35:37;100149.81;;;17.43;100.00
26719;BME280;14326;50.794;6.060;2022-07-22T01:38:06;100157.00;;;17.41;100.00
26719;BME280;14326;50.794;6.060;2022-07-22T01:40:33;100151.63;;;17.41;100.00
26719;BME280;14326;50.794;6.060;2022-07-22T01:42:59;100152.50;;;17.40;100.00
26719;BME280;14326;50.794;6.060;2022-07-22T01:45:26;100152.50;;;17.42;100.00
26719;BME280;14326;50.794;6.060;2022-07-22T01:47:53;100155.19;;;17.42;100.00
26719;BME280;14326;50.794;6.060;2022-07-22T01:50:20;100161.44;;;17.44;100.00
26719;BME280;14326;50.794;6.060;2022-07-22T01:52:46;100159.69;;;17.40;100.00
26719;BME280;14326;50.794;6.060;2022-07-22T01:55:14;100164.22;;;17.36;100.00
26719;BME280;14326;50.794;6.060;2022-07-22T01:57:41;100160.63;;;17.36;100.00
26719;BME280;14326;50.794;6.060;2022-07-22T02:00:09;100151.66;;;17.35;100.00
26719;BME280;14326;50.794;6.060;2022-07-22T02:02:37;100166.88;;;17.38;100.00
26719;BME280;14326;50.794;6.060;2022-07-22T02:05:05;100158.81;;;17.38;100.00
26719;BME280;14326;50.794;6.060;2022-07-22T02:07:32;100158.84;;;17.35;100.00
26719;BME280;14326;50.794;6.060;2022-07-22T02:09:59;100153.53;;;17.30;100.00
26719;BME280;14326;50.794;6.060;2022-07-22T02:12:27;100159.81;;;17.28;100.00
26719;BME280;14326;50.794;6.060;2022-07-22T02:14:54;100150.94;;;17.19;100.00
26719;BME280;14326;50.794;6.060;2022-07-22T02:17:20;100147.31;;;17.22;100.00
26719;BME280;14326;50.794;6.060;2022-07-22T02:19:47;100154.50;;;17.20;100.00
26719;BME280;14326;50.794;6.060;2022-07-22T02:22:13;100137.50;;;17.19;100.00
26719;BME280;14326;50.794;6.060;2022-07-22T02:24:40;100140.16;;;17.21;100.00
26719;BME280;14326;50.794;6.060;2022-07-22T02:27:07;100138.34;;;17.22;100.00
26719;BME280;14326;50.794;6.060;2022-07-22T02:29:35;100141.94;;;17.24;100.00
26719;BME280;14326;50.794;6.060;2022-07-22T02:32:02;100129.44;;;17.19;100.00
26719;BME280;14326;50.794;6.060;2022-07-22T02:34:29;100129.44;;;17.19;100.00
26719;BME280;14326;50.794;6.060;2022-07-22T02:36:55;100137.50;;;17.19;100.00
26719;BME280;14326;50.794;6.060;2022-07-22T02:39:22;100133.06;;;17.12;100.00
26719;BME280;14326;50.794;6.060;2022-07-22T02:41:49;100131.28;;;17.10;100.00
26719;BME280;14326;50.794;6.060;2022-07-22T02:44:16;100130.38;;;17.11;100.00
26719;BME280;14326;50.794;6.060;2022-07-22T02:46:44;100125.91;;;17.10;100.00
26719;BME280;14326;50.794;6.060;2022-07-22T02:49:10;100133.13;;;17.03;100.00
26719;BME280;14326;50.794;6.060;2022-07-22T02:51:37;100133.09;;;17.09;100.00
26719;BME280;14326;50.794;6.060;2022-07-22T02:54:04;100125.97;;;17.07;100.00
26719;BME280;14326;50.794;6.060;2022-07-22T02:56:31;100129.53;;;17.04;100.00
26719;BME280;14326;50.794;6.060;2022-07-22T02:58:57;100130.50;;;17.00;100.00
26719;BME280;14326;50.794;6.060;2022-07-22T03:01:24;100126.00;;;17.01;100.00
26719;BME280;14326;50.794;6.060;2022-07-22T03:03:52;100117.94;;;16.99;98.57
26719;BME280;14326;50.794;6.060;2022-07-22T03:06:19;100123.38;;;16.93;100.00
26719;BME280;14326;50.794;6.060;2022-07-22T03:08:46;100126.97;;;16.94;100.00
26719;BME280;14326;50.794;6.060;2022-07-22T03:11:13;100124.31;;;16.89;100.00
26719;BME280;14326;50.794;6.060;2022-07-22T03:13:40;100119.78;;;16.96;100.00
26719;BME280;14326;50.794;6.060;2022-07-22T03:16:06;100121.53;;;16.98;99.98
26719;BME280;14326;50.794;6.060;2022-07-22T03:18:33;100122.44;;;17.02;99.64
26719;BME280;14326;50.794;6.060;2022-07-22T03:21:02;100114.34;;;17.02;98.95
26719;BME280;14326;50.794;6.060;2022-07-22T03:23:28;100109.88;;;16.99;99.65
26719;BME280;14326;50.794;6.060;2022-07-22T03:25:55;100116.25;;;16.88;96.05
26719;BME280;14326;50.794;6.060;2022-07-22T03:28:22;100118.06;;;16.86;98.64
26719;BME280;14326;50.794;6.060;2022-07-22T03:30:48;100113.56;;;16.89;100.00
26719;BME280;14326;50.794;6.060;2022-07-22T03:33:15;100113.53;;;16.92;100.00
26719;BME280;14326;50.794;6.060;2022-07-22T03:35:42;100113.47;;;17.01;100.00
26719;BME280;14326;50.794;6.060;2022-07-22T03:38:10;100117.91;;;17.04;100.00
26719;BME280;14326;50.794;6.060;2022-07-22T03:40:38;100111.63;;;17.06;100.00
26719;BME280;14326;50.794;6.060;2022-07-22T03:43:05;100115.22;;;17.02;100.00
26719;BME280;14326;50.794;6.060;2022-07-22T03:45:32;100112.63;;;16.96;100.00
26719;BME280;14326;50.794;6.060;2022-07-22T03:47:58;100107.25;;;16.92;100.00
26719;BME280;14326;50.794;6.060;2022-07-22T03:50:25;100109.03;;;16.96;100.00
26719;BME280;14326;50.794;6.060;2022-07-22T03:52:52;100107.22;;;16.98;100.00
26719;BME280;14326;50.794;6.060;2022-07-22T03:55:20;100113.53;;;16.95;100.00
26719;BME280;14326;50.794;6.060;2022-07-22T03:57:47;100113.56;;;16.89;100.00
26719;BME280;14326;50.794;6.060;2022-07-22T04:00:14;100113.53;;;16.92;100.00
26719;BME280;14326;50.794;6.060;2022-07-22T04:02:41;100109.03;;;16.93;100.00
26719;BME280;14326;50.794;6.060;2022-07-22T04:05:07;100113.56;;;16.89;100.00
26719;BME280;14326;50.794;6.060;2022-07-22T04:07:34;100114.41;;;16.93;100.00
26719;BME280;14326;50.794;6.060;2022-07-22T04:10:01;100118.84;;;17.00;100.00
26719;BME280;14326;50.794;6.060;2022-07-22T04:12:40;100115.22;;;17.04;100.00
26719;BME280;14326;50.794;6.060;2022-07-22T04:15:08;100116.16;;;17.01;100.00
26719;BME280;14326;50.794;6.060;2022-07-22T04:17:35;100114.38;;;16.97;100.00
26719;BME280;14326;50.794;6.060;2022-07-22T04:20:03;100121.59;;;16.95;100.00
26719;BME280;14326;50.794;6.060;2022-07-22T04:22:30;100119.78;;;16.96;100.00
26719;BME280;14326;50.794;6.060;2022-07-22T04:24:57;100122.44;;;16.99;100.00
26719;BME280;14326;50.794;6.060;2022-07-22T04:27:24;100130.44;;;17.03;100.00
26719;BME280;14326;50.794;6.060;2022-07-22T04:29:52;100118.81;;;17.03;100.00
26719;BME280;14326;50.794;6.060;2022-07-22T04:32:18;100120.59;;;17.02;100.00
26719;BME280;14326;50.794;6.060;2022-07-22T04:34:45;100115.28;;;16.98;100.00
26719;BME280;14326;50.794;6.060;2022-07-22T04:37:11;100110.78;;;16.97;100.00
26719;BME280;14326;50.794;6.060;2022-07-22T04:39:38;100114.47;;;16.90;100.00
26719;BME280;14326;50.794;6.060;2022-07-22T04:42:05;100111.78;;;16.85;100.00
26719;BME280;14326;50.794;6.060;2022-07-22T04:44:32;100113.56;;;16.88;100.00
26719;BME280;14326;50.794;6.060;2022-07-22T04:47:00;100116.25;;;16.89;100.00
26719;BME280;14326;50.794;6.060;2022-07-22T04:49:27;100120.69;;;16.93;100.00
26719;BME280;14326;50.794;6.060;2022-07-22T04:51:54;100115.31;;;16.93;100.00
26719;BME280;14326;50.794;6.060;2022-07-22T04:54:20;100108.22;;;16.86;100.00
26719;BME280;14326;50.794;6.060;2022-07-22T04:56:47;100113.63;;;16.85;100.00
26719;BME280;14326;50.794;6.060;2022-07-22T04:59:14;100110.94;;;16.85;100.00
26719;BME280;14326;50.794;6.060;2022-07-22T05:01:40;100115.38;;;16.86;100.00
26719;BME280;14326;50.794;6.060;2022-07-22T05:04:09;100107.28;;;16.90;100.00
26719;BME280;14326;50.794;6.060;2022-07-22T05:06:36;100105.41;;;16.98;100.00
26719;BME280;14326;50.794;6.060;2022-07-22T05:09:04;100105.47;;;16.95;100.00
26719;BME280;14326;50.794;6.060;2022-07-22T05:11:32;100112.78;;;16.78;100.00
26719;BME280;14326;50.794;6.060;2022-07-22T05:13:59;100115.47;;;16.75;100.00
26719;BME280;14326;50.794;6.060;2022-07-22T05:16:26;100112.72;;;16.83;100.00
26719;BME280;14326;50.794;6.060;2022-07-22T05:18:53;100110.94;;;16.82;100.00
26719;BME280;14326;50.794;6.060;2022-07-22T05:21:21;100111.78;;;16.88;100.00
26719;BME280;14326;50.794;6.060;2022-07-22T05:23:48;100109.09;;;16.87;100.00
26719;BME280;14326;50.794;6.060;2022-07-22T05:26:14;100103.72;;;16.90;100.00
26719;BME280;14326;50.794;6.060;2022-07-22T05:28:41;100102.81;;;16.86;100.00
26719;BME280;14326;50.794;6.060;2022-07-22T05:31:08;100107.31;;;16.87;100.00
26719;BME280;14326;50.794;6.060;2022-07-22T05:33:34;100104.56;;;16.93;100.00
26719;BME280;14326;50.794;6.060;2022-07-22T05:36:03;100100.09;;;16.95;100.00
26719;BME280;14326;50.794;6.060;2022-07-22T05:38:33;100106.28;;;17.02;100.00
26719;BME280;14326;50.794;6.060;2022-07-22T05:41:00;100104.47;;;17.02;100.00
26719;BME280;14326;50.794;6.060;2022-07-22T05:43:26;100097.28;;;17.07;100.00
26719;BME280;14326;50.794;6.060;2022-07-22T05:45:53;100105.31;;;17.10;99.35
26719;BME280;14326;50.794;6.060;2022-07-22T05:48:20;100106.25;;;17.03;96.14
26719;BME280;14326;50.794;6.060;2022-07-22T05:50:46;100106.25;;;17.03;95.46
26719;BME280;14326;50.794;6.060;2022-07-22T05:53:13;100109.88;;;16.99;93.37
26719;BME280;14326;50.794;6.060;2022-07-22T05:55:41;100106.31;;;16.97;92.63
26719;BME280;14326;50.794;6.060;2022-07-22T05:58:08;100100.09;;;16.94;91.07
26719;BME280;14326;50.794;6.060;2022-07-22T06:00:35;100101.81;;;16.99;91.86
26719;BME280;14326;50.794;6.060;2022-07-22T06:03:01;100099.09;;;17.05;91.87
26719;BME280;14326;50.794;6.060;2022-07-22T06:05:28;100102.72;;;17.00;90.59
26719;BME280;14326;50.794;6.060;2022-07-22T06:07:54;100099.97;;;17.07;90.72
26719;BME280;14326;50.794;6.060;2022-07-22T06:10:21;100107.03;;;17.16;91.11
26719;BME280;14326;50.794;6.060;2022-07-22T06:12:49;100106.97;;;17.20;89.78
26719;BME280;14326;50.794;6.060;2022-07-22T06:15:16;100092.56;;;17.28;89.37
26719;BME280;14326;50.794;6.060;2022-07-22T06:17:42;100099.63;;;17.39;91.84
26719;BME280;14326;50.794;6.060;2022-07-22T06:20:10;100101.47;;;17.33;88.30
26719;BME280;14326;50.794;6.060;2022-07-22T06:22:39;100096.94;;;17.38;89.36
26719;BME280;14326;50.794;6.060;2022-07-22T06:25:06;100100.53;;;17.40;89.05
26719;BME280;14326;50.794;6.060;2022-07-22T06:27:33;100106.91;;;17.30;85.06
26719;BME280;14326;50.794;6.060;2022-07-22T06:30:01;100098.84;;;17.27;86.59
26719;BME280;14326;50.794;6.060;2022-07-22T06:32:28;100093.34;;;17.42;88.89
26719;BME280;14326;50.794;6.060;2022-07-22T06:34:55;100102.22;;;17.48;88.63
26719;BME280;14326;50.794;6.060;2022-07-22T06:37:21;100093.34;;;17.42;87.51
26719;BME280;14326;50.794;6.060;2022-07-22T06:39:48;100095.06;;;17.47;88.14
26719;BME280;14326;50.794;6.060;2022-07-22T06:42:14;100103.09;;;17.50;87.88
26719;BME280;14326;50.794;6.060;2022-07-22T06:44:41;100105.84;;;17.44;89.29
26719;BME280;14326;50.794;6.060;2022-07-22T06:47:09;100105.91;;;17.40;88.73
26719;BME280;14326;50.794;6.060;2022-07-22T06:49:36;100100.38;;;17.52;90.43
26719;BME280;14326;50.794;6.060;2022-07-22T06:52:03;100092.13;;;17.70;89.15
26719;BME280;14326;50.794;6.060;2022-07-22T06:54:29;100092.91;;;17.81;89.25
26719;BME280;14326;50.794;6.060;2022-07-22T06:56:56;100102.09;;;17.62;87.12
26719;BME280;14326;50.794;6.060;2022-07-22T06:59:23;100092.31;;;17.53;89.31
26719;BME280;14326;50.794;6.060;2022-07-22T07:01:50;100092.25;;;17.59;90.28
26719;BME280;14326;50.794;6.060;2022-07-22T07:04:18;100092.44;;;17.43;89.90
26719;BME280;14326;50.794;6.060;2022-07-22T07:06:45;100095.09;;;17.44;89.48
26719;BME280;14326;50.794;6.060;2022-07-22T07:09:11;100091.31;;;17.64;89.73
26719;BME280;14326;50.794;6.060;2022-07-22T07:11:38;100088.50;;;17.74;86.71
26719;BME280;14326;50.794;6.060;2022-07-22T07:14:05;100088.34;;;17.86;87.46
26719;BME280;14326;50.794;6.060;2022-07-22T07:16:31;100090.03;;;17.95;85.31
26719;BME280;14326;50.794;6.060;2022-07-22T07:18:58;100080.09;;;17.98;87.58
26719;BME280;14326;50.794;6.060;2022-07-22T07:21:26;100080.69;;;18.20;86.04
26719;BME280;14326;50.794;6.060;2022-07-22T07:23:53;100079.59;;;18.35;80.95
26719;BME280;14326;50.794;6.060;2022-07-22T07:26:20;100084.00;;;18.39;80.78
26719;BME280;14326;50.794;6.060;2022-07-22T07:28:47;100085.69;;;18.48;80.19
26719;BME280;14326;50.794;6.060;2022-07-22T07:31:14;100077.88;;;18.28;81.96
26719;BME280;14326;50.794;6.060;2022-07-22T07:33:40;100077.88;;;18.28;81.43
26719;BME280;14326;50.794;6.060;2022-07-22T07:36:07;100083.19;;;18.35;82.02
26719;BME280;14326;50.794;6.060;2022-07-22T07:38:35;100086.47;;;18.54;81.70
26719;BME280;14326;50.794;6.060;2022-07-22T07:41:02;100076.72;;;18.46;79.41
26719;BME280;14326;50.794;6.060;2022-07-22T07:43:29;100079.22;;;19.13;81.97
26719;BME280;14326;50.794;6.060;2022-07-22T07:45:55;100081.19;;;19.52;79.00
26719;BME280;14326;50.794;6.060;2022-07-22T07:48:22;100080.41;;;19.47;74.99
26719;BME280;14326;50.794;6.060;2022-07-22T07:50:49;100086.88;;;19.37;75.18
26719;BME280;14326;50.794;6.060;2022-07-22T07:53:16;100090.50;;;19.35;75.84
26719;BME280;14326;50.794;6.060;2022-07-22T07:55:44;100088.47;;;18.97;77.50
26719;BME280;14326;50.794;6.060;2022-07-22T07:58:11;100088.94;;;18.69;78.23
26719;BME280;14326;50.794;6.060;2022-07-22T08:00:38;100090.84;;;18.64;80.76
26719;BME280;14326;50.794;6.060;2022-07-22T08:03:06;100086.25;;;18.69;78.51
26719;BME280;14326;50.794;6.060;2022-07-22T08:05:34;100090.66;;;18.75;79.21
26719;BME280;14326;50.794;6.060;2022-07-22T08:08:00;100088.81;;;18.78;77.37
26719;BME280;14326;50.794;6.060;2022-07-22T08:10:27;100086.47;;;19.09;76.97
26719;BME280;14326;50.794;6.060;2022-07-22T08:12:56;100073.00;;;19.57;75.82
26719;BME280;14326;50.794;6.060;2022-07-22T08:15:23;100074.78;;;20.01;75.72
26719;BME280;14326;50.794;6.060;2022-07-22T08:17:50;100090.72;;;20.13;72.59
26719;BME280;14326;50.794;6.060;2022-07-22T08:20:17;100076.28;;;20.14;75.03
26719;BME280;14326;50.794;6.060;2022-07-22T08:22:44;100087.38;;;20.02;70.91
26719;BME280;14326;50.794;6.060;2022-07-22T08:25:11;100077.66;;;20.33;71.44
26719;BME280;14326;50.794;6.060;2022-07-22T08:27:38;100074.47;;;20.55;69.59
26719;BME280;14326;50.794;6.060;2022-07-22T08:30:07;100075.00;;;20.69;69.04
26719;BME280;14326;50.794;6.060;2022-07-22T08:32:34;100076.25;;;20.56;69.86
26719;BME280;14326;50.794;6.060;2022-07-22T08:35:01;100072.13;;;20.76;69.52
26719;BME280;14326;50.794;6.060;2022-07-22T08:37:28;100082.78;;;20.82;69.20
26719;BME280;14326;50.794;6.060;2022-07-22T08:39:55;100088.06;;;20.87;67.83
26719;BME280;14326;50.794;6.060;2022-07-22T08:42:22;100082.81;;;20.81;67.42
26719;BME280;14326;50.794;6.060;2022-07-22T08:44:50;100080.69;;;20.94;67.85
26719;BME280;14326;50.794;6.060;2022-07-22T08:47:22;100075.13;;;21.35;69.08
26719;BME280;14326;50.794;6.060;2022-07-22T08:50:02;100069.84;;;21.31;67.21
26719;BME280;14326;50.794;6.060;2022-07-22T08:52:39;100069.53;;;21.07;68.66
26719;BME280;14326;50.794;6.060;2022-07-22T08:55:15;100063.75;;;21.21;67.71
26719;BME280;14326;50.794;6.060;2022-07-22T08:57:53;100067.03;;;21.66;65.70
26719;BME280;14326;50.794;6.060;2022-07-22T09:00:22;100064.03;;;21.75;68.19
26719;BME280;14326;50.794;6.060;2022-07-22T09:03:33;100063.19;;;22.04;65.03
26719;BME280;14326;50.794;6.060;2022-07-22T09:09:34;100071.53;;;22.55;65.29
26719;BME280;14326;50.794;6.060;2022-07-22T09:12:05;100063.25;;;22.60;62.99
26719;BME280;14326;50.794;6.060;2022-07-22T09:18:04;100072.50;;;22.25;64.80
26719;BME280;14326;50.794;6.060;2022-07-22T09:20:58;100066.72;;;22.37;63.74
26719;BME280;14326;50.794;6.060;2022-07-22T09:23:42;100066.91;;;22.31;63.61
26719;BME280;14326;50.794;6.060;2022-07-22T09:26:37;100063.59;;;22.49;63.67
26719;BME280;14326;50.794;6.060;2022-07-22T09:29:21;100059.53;;;22.34;63.37
26719;BME280;14326;50.794;6.060;2022-07-22T09:32:01;100063.06;;;22.38;63.59
26719;BME280;14326;50.794;6.060;2022-07-22T09:34:45;100056.16;;;22.83;65.47
26719;BME280;14326;50.794;6.060;2022-07-22T09:37:21;100056.19;;;22.82;62.41
26719;BME280;14326;50.794;6.060;2022-07-22T09:39:58;100054.47;;;22.52;63.06
26719;BME280;14326;50.794;6.060;2022-07-22T09:42:47;100052.41;;;22.88;62.21
26719;BME280;14326;50.794;6.060;2022-07-22T09:45:24;100051.34;;;22.92;62.16
26719;BME280;14326;50.794;6.060;2022-07-22T09:48:07;100047.19;;;22.81;60.79
26719;BME280;14326;50.794;6.060;2022-07-22T09:51:22;100045.69;;;22.73;63.18
26719;BME280;14326;50.794;6.060;2022-07-22T09:54:07;100038.31;;;23.03;63.11
26719;BME280;14326;50.794;6.060;2022-07-22T09:56:35;100037.03;;;23.13;62.44
26719;BME280;14326;50.794;6.060;2022-07-22T09:59:02;100042.69;;;23.07;61.88
26719;BME280;14326;50.794;6.060;2022-07-22T10:01:31;100021.47;;;23.43;60.70
26719;BME280;14326;50.794;6.060;2022-07-22T10:07:27;100008.78;;;23.43;60.80
26719;BME280;14326;50.794;6.060;2022-07-22T10:10:41;100008.59;;;23.49;59.22
26719;BME280;14326;50.794;6.060;2022-07-22T10:13:57;100011.16;;;23.27;60.85
26719;BME280;14326;50.794;6.060;2022-07-22T10:17:02;100021.44;;;22.93;60.16
26719;BME280;14326;50.794;6.060;2022-07-22T10:19:31;100017.03;;;22.36;61.33
26719;BME280;14326;50.794;6.060;2022-07-22T10:25:31;100021.25;;;22.45;64.71
26719;BME280;14326;50.794;6.060;2022-07-22T10:31:38;100027.88;;;22.63;63.95
26719;BME280;14326;50.794;6.060;2022-07-22T10:34:08;100027.69;;;22.97;63.05
26719;BME280;14326;50.794;6.060;2022-07-22T10:36:49;100019.66;;;23.18;62.88
26719;BME280;14326;50.794;6.060;2022-07-22T10:39:16;100021.63;;;22.89;63.05
26719;BME280;14326;50.794;6.060;2022-07-22T10:41:59;100032.25;;;22.95;63.96
26719;BME280;14326;50.794;6.060;2022-07-22T10:44:53;100020.19;;;23.03;64.75
26719;BME280;14326;50.794;6.060;2022-07-22T10:51:15;100005.91;;;23.96;61.85
26719;BME280;14326;50.794;6.060;2022-07-22T10:53:56;100007.06;;;23.89;62.92
26719;BME280;14326;50.794;6.060;2022-07-22T10:56:27;100002.72;;;23.85;60.49
26719;BME280;14326;50.794;6.060;2022-07-22T10:58:59;99992.38;;;24.16;60.12
26719;BME280;14326;50.794;6.060;2022-07-22T11:01:30;99996.84;;;23.95;60.59
26719;BME280;14326;50.794;6.060;2022-07-22T11:04:20;99994.63;;;24.28;59.38
26719;BME280;14326;50.794;6.060;2022-07-22T11:07:23;99996.91;;;24.39;59.76
26719;BME280;14326;50.794;6.060;2022-07-22T11:10:15;100007.69;;;24.42;58.58
26719;BME280;14326;50.794;6.060;2022-07-22T11:12:44;100000.31;;;23.99;59.87
26719;BME280;14326;50.794;6.060;2022-07-22T11:15:15;100002.81;;;23.58;63.45
26719;BME280;14326;50.794;6.060;2022-07-22T11:17:46;99996.91;;;23.46;63.06
26719;BME280;14326;50.794;6.060;2022-07-22T11:20:46;99983.84;;;23.57;62.92
26719;BME280;14326;50.794;6.060;2022-07-22T11:26:51;99986.03;;;23.71;62.39
26719;BME280;14326;50.794;6.060;2022-07-22T11:30:12;99974.88;;;24.01;61.31
26719;BME280;14326;50.794;6.060;2022-07-22T11:32:56;99981.44;;;23.49;63.39
26719;BME280;14326;50.794;6.060;2022-07-22T11:36:08;99972.78;;;23.38;63.42
26719;BME280;14326;50.794;6.060;2022-07-22T11:39:13;99958.75;;;23.50;61.83
26719;BME280;14326;50.794;6.060;2022-07-22T11:42:04;99966.31;;;23.89;63.68
26719;BME280;14326;50.794;6.060;2022-07-22T11:44:52;99962.28;;;23.76;60.71
26719;BME280;14326;50.794;6.060;2022-07-22T11:47:35;99960.91;;;23.65;61.55
26719;BME280;14326;50.794;6.060;2022-07-22T11:50:30;99961.56;;;23.94;63.49
26719;BME280;14326;50.794;6.060;2022-07-22T11:53:54;99957.50;;;24.27;61.67
26719;BME280;14326;50.794;6.060;2022-07-22T11:56:42;99950.94;;;24.75;58.66
26719;BME280;14326;50.794;6.060;2022-07-22T12:02:43;99946.22;;;25.00;58.13
26719;BME280;14326;50.794;6.060;2022-07-22T12:05:35;99939.28;;;25.13;57.39
26719;BME280;14326;50.794;6.060;2022-07-22T12:08:11;99936.19;;;25.41;56.95
26719;BME280;14326;50.794;6.060;2022-07-22T12:11:08;99941.94;;;25.54;58.09
26719;BME280;14326;50.794;6.060;2022-07-22T12:13:54;99943.19;;;25.67;56.18
26719;BME280;14326;50.794;6.060;2022-07-22T12:17:18;99938.63;;;25.67;56.03
26719;BME280;14326;50.794;6.060;2022-07-22T12:24:04;99925.53;;;25.16;54.46
26719;BME280;14326;50.794;6.060;2022-07-22T12:27:06;99922.97;;;25.13;55.65
26719;BME280;14326;50.794;6.060;2022-07-22T12:29:58;99929.50;;;24.89;56.14
26719;BME280;14326;50.794;6.060;2022-07-22T12:33:23;99922.50;;;24.82;57.31
26719;BME280;14326;50.794;6.060;2022-07-22T12:36:34;99915.41;;;24.79;57.84
26719;BME280;14326;50.794;6.060;2022-07-22T12:39:15;99918.66;;;24.25;57.78
26719;BME280;14326;50.794;6.060;2022-07-22T12:41:47;99913.94;;;24.29;58.48
26719;BME280;14326;50.794;6.060;2022-07-22T12:44:21;99916.16;;;23.97;58.26
26719;BME280;14326;50.794;6.060;2022-07-22T12:46:50;99919.28;;;23.87;60.91
26719;BME280;14326;50.794;6.060;2022-07-22T12:49:18;99915.81;;;23.83;62.04
26719;BME280;14326;50.794;6.060;2022-07-22T12:52:10;99903.16;;;24.04;62.26
26719;BME280;14326;50.794;6.060;2022-07-22T12:54:39;99908.91;;;24.20;59.76
26719;BME280;14326;50.794;6.060;2022-07-22T12:57:08;99904.31;;;24.42;61.86
26719;BME280;14326;50.794;6.060;2022-07-22T12:59:35;99909.72;;;24.64;60.54
26719;BME280;14326;50.794;6.060;2022-07-22T13:02:04;99911.50;;;24.44;59.56
26719;BME280;14326;50.794;6.060;2022-07-22T13:04:31;99907.00;;;24.43;58.82
26719;BME280;14326;50.794;6.060;2022-07-22T13:06:58;99906.25;;;24.18;58.81
26719;BME280;14326;50.794;6.060;2022-07-22T13:09:24;99912.16;;;24.06;58.64
26719;BME280;14326;50.794;6.060;2022-07-22T13:11:53;99898.75;;;24.01;59.92
26719;BME280;14326;50.794;6.060;2022-07-22T13:14:20;99891.78;;;24.16;60.46
26719;BME280;14326;50.794;6.060;2022-07-22T13:16:46;99883.56;;;24.19;59.11
26719;BME280;14326;50.794;6.060;2022-07-22T13:19:13;99888.38;;;24.55;59.81
26719;BME280;14326;50.794;6.060;2022-07-22T13:21:40;99898.47;;;24.93;58.99
26719;BME280;14326;50.794;6.060;2022-07-22T13:24:07;99889.19;;;25.17;56.84
26719;BME280;14326;50.794;6.060;2022-07-22T13:26:34;99897.38;;;24.97;55.12
26719;BME280;14326;50.794;6.060;2022-07-22T13:29:02;99905.78;;;24.71;57.24
26719;BME280;14326;50.794;6.060;2022-07-22T13:31:29;99908.16;;;24.78;56.89
26719;BME280;14326;50.794;6.060;2022-07-22T13:33:57;99910.03;;;24.98;55.15
26719;BME280;14326;50.794;6.060;2022-07-22T13:36:24;99909.44;;;24.92;57.61
26719;BME280;14326;50.794;6.060;2022-07-22T13:38:53;99900.56;;;25.07;55.70
26719;BME280;14326;50.794;6.060;2022-07-22T13:41:20;99890.16;;;24.96;56.34
26719;BME280;14326;50.794;6.060;2022-07-22T13:43:47;99885.09;;;24.87;56.04